createdAt,value
2019-06-20T00:02:50.822Z,4.30
2019-06-20T00:07:54.679Z,4.55
2019-06-20T00:13:00.749Z,4.47
2019-06-20T00:18:02.285Z,4.62
2019-06-20T00:23:05.407Z,4.60
2019-06-20T00:28:08.206Z,5.17
2019-06-20T00:33:10.914Z,4.40
2019-06-20T00:38:13.765Z,4.40
2019-06-20T00:43:18.237Z,5.10
2019-06-20T00:48:20.975Z,5.05
2019-06-20T00:53:23.801Z,5.00
2019-06-20T00:58:26.521Z,4.53
2019-06-20T01:03:29.289Z,4.78
2019-06-20T01:08:32.083Z,4.17
2019-06-20T01:13:34.821Z,4.58
2019-06-20T01:18:37.609Z,4.12
2019-06-20T01:23:40.222Z,4.47
2019-06-20T01:28:43.068Z,4.15
2019-06-20T01:33:45.835Z,4.35
2019-06-20T01:38:48.576Z,3.92
2019-06-20T01:43:51.385Z,4.10
2019-06-20T01:48:54.192Z,3.85
2019-06-20T01:53:56.773Z,3.75
2019-06-20T01:58:59.543Z,4.60
2019-06-20T02:04:02.344Z,3.80
2019-06-20T02:09:07.872Z,3.72
2019-06-20T02:14:10.747Z,3.75
2019-06-20T02:19:13.414Z,3.52
2019-06-20T02:24:16.137Z,3.98
2019-06-20T02:29:18.893Z,4.47
2019-06-20T02:34:21.549Z,5.45
2019-06-20T02:39:24.471Z,4.45
2019-06-20T02:44:30.528Z,5.15
2019-06-20T02:49:31.912Z,4.30
2019-06-20T02:54:34.621Z,4.62
2019-06-20T02:59:37.402Z,4.95
2019-06-20T03:04:41.368Z,4.35
2019-06-20T03:09:44.117Z,4.62
2019-06-20T03:14:46.872Z,5.15
2019-06-20T03:19:49.751Z,4.85
2019-06-20T03:24:52.794Z,5.15
2019-06-20T03:29:55.787Z,5.17
2019-06-20T03:34:58.748Z,4.50
2019-06-20T03:40:01.687Z,4.92
2019-06-20T03:45:04.473Z,4.22
2019-06-20T03:50:07.511Z,3.60
2019-06-20T03:55:10.309Z,3.77
2019-06-20T04:00:13.997Z,3.42
2019-06-20T04:05:16.930Z,3.35
2019-06-20T04:10:19.708Z,3.87
2019-06-20T04:15:22.703Z,2.80
2019-06-20T04:20:25.768Z,2.87
2019-06-20T04:25:28.767Z,2.60
2019-06-20T04:30:39.158Z,2.50
2019-06-20T04:35:42.267Z,2.58
2019-06-20T04:40:54.773Z,3.22
2019-06-20T04:46:04.847Z,2.47
2019-06-20T04:51:08.031Z,2.15
2019-06-20T04:56:11.659Z,2.15
2019-06-20T05:01:16.020Z,1.95
2019-06-20T05:06:28.575Z,1.87
2019-06-20T05:17:10.995Z,2.17
2019-06-20T05:22:14.103Z,2.12
2019-06-20T05:27:16.927Z,1.75
2019-06-20T05:32:19.981Z,2.10
2019-06-20T05:38:09.049Z,2.17
2019-06-20T05:43:16.285Z,2.00
2019-06-20T05:48:22.757Z,2.65
2019-06-20T05:53:26.613Z,2.75
2019-06-20T05:58:29.792Z,2.67
2019-06-20T06:03:33.558Z,2.80
2019-06-20T06:08:36.762Z,2.65
2019-06-20T06:13:39.797Z,2.10
2019-06-20T06:25:02.451Z,2.47
2019-06-20T06:30:14.284Z,2.50
2019-06-20T06:35:17.768Z,2.60
2019-06-20T06:40:21.487Z,3.08
2019-06-20T06:45:25.012Z,3.02
2019-06-20T06:50:27.931Z,3.30
2019-06-20T06:55:30.691Z,3.45
2019-06-20T07:00:33.646Z,4.00
2019-06-20T07:05:44.393Z,4.80
2019-06-20T07:10:47.465Z,4.05
2019-06-20T07:15:54.571Z,4.35
2019-06-20T07:20:57.298Z,5.10
2019-06-20T07:26:00.205Z,5.78
2019-06-20T07:31:02.974Z,5.97
2019-06-20T07:36:07.269Z,6.67
2019-06-20T07:41:10.357Z,7.22
2019-06-20T07:46:13.475Z,7.50
2019-06-20T07:51:16.635Z,8.50
2019-06-20T07:56:19.380Z,8.95
2019-06-20T08:01:22.182Z,9.78
2019-06-20T08:06:25.169Z,11.80
2019-06-20T08:11:31.310Z,12.78
2019-06-20T08:16:34.260Z,15.72
2019-06-20T08:21:38.096Z,19.75
2019-06-20T08:26:41.031Z,21.97
2019-06-20T08:31:46.947Z,21.27
2019-06-20T08:36:49.740Z,20.40
2019-06-20T08:41:55.440Z,19.73
2019-06-20T08:47:03.864Z,17.92
2019-06-20T08:52:06.892Z,18.10
2019-06-20T08:57:09.854Z,16.52
2019-06-20T09:02:12.943Z,15.88
2019-06-20T09:07:17.373Z,15.43
2019-06-20T09:12:20.452Z,13.75
2019-06-20T09:17:23.675Z,12.25
2019-06-20T09:22:26.619Z,13.62
2019-06-20T09:27:35.242Z,11.20
2019-06-20T09:32:38.369Z,12.35
2019-06-20T09:37:44.595Z,11.00
2019-06-20T09:42:52.869Z,9.75
2019-06-20T09:47:58.321Z,9.75
2019-06-20T09:53:01.867Z,10.38
2019-06-20T09:58:04.796Z,11.25
2019-06-20T10:03:07.683Z,13.00
2019-06-20T10:08:11.313Z,13.20
2019-06-20T10:13:21.317Z,13.80
2019-06-20T10:18:24.287Z,16.52
2019-06-20T10:23:27.156Z,17.92
2019-06-20T10:28:29.927Z,17.45
2019-06-20T10:33:33.782Z,16.05
2019-06-20T10:38:36.527Z,15.55
2019-06-20T10:43:39.410Z,14.23
2019-06-20T10:48:43.102Z,13.10
2019-06-20T10:53:47.399Z,13.28
2019-06-20T10:58:50.707Z,12.53
2019-06-20T11:03:53.926Z,10.60
2019-06-20T11:08:56.766Z,12.55
2019-06-20T11:14:10.136Z,11.78
2019-06-20T11:19:13.324Z,12.68
2019-06-20T11:24:16.239Z,12.43
2019-06-20T11:29:31.858Z,12.47
2019-06-20T11:34:34.586Z,10.55
2019-06-20T11:39:38.846Z,10.65
2019-06-20T11:44:43.016Z,10.25
2019-06-20T11:49:54.331Z,11.38
2019-06-20T11:54:57.132Z,9.93
2019-06-20T12:00:00.286Z,10.15
2019-06-20T12:05:04.761Z,12.23
2019-06-20T12:10:09.347Z,13.98
2019-06-20T12:15:13.383Z,14.85
2019-06-20T12:20:16.291Z,17.25
2019-06-20T12:25:19.387Z,18.55
2019-06-20T12:30:22.697Z,19.73
2019-06-20T12:35:25.799Z,18.95
2019-06-20T12:40:28.737Z,16.87
2019-06-20T12:45:31.840Z,19.02
2019-06-20T12:50:35.598Z,20.77
2019-06-20T12:55:40.259Z,22.10
2019-06-20T13:00:44.821Z,22.95
2019-06-20T13:05:49.091Z,22.42
2019-06-20T13:10:51.947Z,22.98
2019-06-20T13:16:02.238Z,22.27
2019-06-20T13:21:05.038Z,22.30
2019-06-20T13:26:07.970Z,20.25
2019-06-20T13:31:10.842Z,20.80
2019-06-20T13:36:13.704Z,19.57
2019-06-20T13:41:20.176Z,20.55
2019-06-20T13:46:23.141Z,21.07
2019-06-20T13:51:26.211Z,17.73
2019-06-20T13:56:29.071Z,18.80
2019-06-20T14:01:32.246Z,16.67
2019-06-20T14:06:36.038Z,17.98
2019-06-20T14:11:38.713Z,17.50
2019-06-20T14:16:44.717Z,13.95
2019-06-20T14:21:47.677Z,15.60
2019-06-20T14:26:50.681Z,16.85
2019-06-20T14:31:53.779Z,18.80
2019-06-20T14:36:57.137Z,17.77
2019-06-20T14:42:02.442Z,15.43
2019-06-20T14:47:06.376Z,14.60
2019-06-20T14:52:09.629Z,15.50
2019-06-20T14:57:12.522Z,15.38
2019-06-20T15:02:15.362Z,15.03
2019-06-20T15:07:18.623Z,13.35
2019-06-20T15:12:21.490Z,13.28
2019-06-20T15:17:24.895Z,14.25
2019-06-20T15:22:27.745Z,14.83
2019-06-20T15:27:37.108Z,14.03
2019-06-20T15:32:53.490Z,14.23
2019-06-20T15:37:57.667Z,16.30
2019-06-20T15:43:00.709Z,19.37
2019-06-20T15:48:03.605Z,21.42
2019-06-20T15:53:06.421Z,7.12
2019-06-20T15:58:09.405Z,5.12
2019-06-20T16:03:14.703Z,5.80
2019-06-20T16:08:17.639Z,5.10
2019-06-20T16:13:20.544Z,6.40
2019-06-20T16:18:23.581Z,4.20
2019-06-20T16:23:27.321Z,5.53
2019-06-20T16:28:30.386Z,4.85
2019-06-20T16:33:33.855Z,7.75
2019-06-20T16:38:37.073Z,8.38
2019-06-20T16:43:40.106Z,7.97
2019-06-20T16:48:47.288Z,8.88
2019-06-20T16:53:53.610Z,7.58
2019-06-20T16:59:00.105Z,6.92
2019-06-20T17:04:04.699Z,3.85
2019-06-20T17:09:07.952Z,4.83
2019-06-20T17:14:11.309Z,4.53
2019-06-20T17:19:14.248Z,4.95
2019-06-20T17:24:17.270Z,5.40
2019-06-20T17:29:20.058Z,5.65
2019-06-20T17:34:23.145Z,4.33
2019-06-20T17:39:26.304Z,4.87
2019-06-20T17:44:29.318Z,3.17
2019-06-20T17:49:32.226Z,3.52
2019-06-20T17:54:35.022Z,3.75
2019-06-20T17:59:37.813Z,3.20
2019-06-20T18:04:40.989Z,3.30
2019-06-20T18:09:43.789Z,3.60
2019-06-20T18:14:48.812Z,2.83
2019-06-20T18:19:51.854Z,3.37
2019-06-20T18:24:54.868Z,3.05
2019-06-20T18:29:57.805Z,2.77
2019-06-20T18:35:02.228Z,2.87
2019-06-20T18:40:06.521Z,3.13
2019-06-20T18:45:11.379Z,2.98
2019-06-20T18:50:15.421Z,3.47
2019-06-20T18:55:20.010Z,3.30
2019-06-20T19:00:34.209Z,2.95
2019-06-20T19:05:29.399Z,2.87
2019-06-20T19:10:33.702Z,2.10
2019-06-20T19:15:37.585Z,2.20
2019-06-20T19:20:49.061Z,2.17
2019-06-20T19:25:58.053Z,2.05
2019-06-20T19:31:00.786Z,1.95
2019-06-20T19:36:03.757Z,2.72
2019-06-20T19:41:06.734Z,1.82
2019-06-20T19:46:09.809Z,1.70
2019-06-20T19:51:12.850Z,1.70
2019-06-20T19:56:15.549Z,1.70
2019-06-20T20:01:18.487Z,1.50
2019-06-20T20:06:21.319Z,1.52
2019-06-20T20:11:26.437Z,1.10
2019-06-20T20:16:29.227Z,1.98
2019-06-20T20:21:32.090Z,1.62
2019-06-20T20:26:34.993Z,1.60
2019-06-20T20:31:37.979Z,1.57
2019-06-20T20:36:40.795Z,1.00
2019-06-20T20:41:44.590Z,1.20
2019-06-20T20:46:53.215Z,1.50
2019-06-20T20:51:56.854Z,1.53
2019-06-20T20:57:00.763Z,1.25
2019-06-20T21:02:03.682Z,1.32
2019-06-20T21:07:07.697Z,1.65
2019-06-20T21:12:10.515Z,1.30
2019-06-20T21:17:13.421Z,1.60
2019-06-20T21:22:16.315Z,1.60
2019-06-20T21:27:19.527Z,1.47
2019-06-20T21:32:22.294Z,1.62
2019-06-20T21:37:25.130Z,1.30
2019-06-20T21:42:27.950Z,1.62
2019-06-20T21:47:30.676Z,1.77
2019-06-20T21:52:33.332Z,1.80
2019-06-20T21:57:36.106Z,1.70
2019-06-20T22:02:39.964Z,1.90
2019-06-20T22:07:42.966Z,1.70
2019-06-20T22:12:45.703Z,1.92
2019-06-20T22:17:48.779Z,1.60
2019-06-20T22:22:53.186Z,2.25
2019-06-20T22:27:56.089Z,2.20
2019-06-20T22:32:59.303Z,3.07
2019-06-20T22:38:02.073Z,2.27
2019-06-20T22:43:04.950Z,2.67
2019-06-20T22:48:08.050Z,2.00
2019-06-20T22:53:10.819Z,2.05
2019-06-20T22:58:13.637Z,2.87
2019-06-20T23:03:16.358Z,2.33
2019-06-20T23:08:19.116Z,2.10
2019-06-20T23:13:22.411Z,2.33
2019-06-20T23:18:25.340Z,2.62
2019-06-20T23:23:40.095Z,2.17
2019-06-20T23:28:42.911Z,2.58
2019-06-20T23:33:45.702Z,1.92
2019-06-20T23:38:48.679Z,2.67
2019-06-20T23:43:51.474Z,2.13
2019-06-20T23:48:54.365Z,2.97
2019-06-20T23:53:57.324Z,2.53
2019-06-20T23:59:00.102Z,3.07
